createdAt,value
2019-04-22T00:00:36.794Z,10.73
2019-04-22T00:01:36.410Z,10.78
2019-04-22T00:02:43.577Z,10.76
2019-04-22T00:03:45.507Z,10.73
2019-04-22T00:04:52.555Z,10.75
2019-04-22T00:06:00.382Z,10.68
2019-04-22T00:07:07.059Z,10.70
2019-04-22T00:08:10.620Z,10.68
2019-04-22T00:09:11.061Z,10.65
2019-04-22T00:10:13.380Z,10.54
2019-04-22T00:11:22.273Z,10.54
2019-04-22T00:13:23.772Z,10.47
2019-04-22T00:14:13.144Z,10.42
2019-04-22T00:15:15.477Z,10.51
2019-04-22T00:16:26.459Z,10.49
2019-04-22T00:17:26.224Z,10.44
2019-04-22T00:18:30.437Z,10.36
2019-04-22T00:19:32.092Z,10.31
2019-04-22T00:20:23.841Z,10.32
2019-04-22T00:21:35.362Z,10.32
2019-04-22T00:22:28.868Z,10.34
2019-04-22T00:23:31.388Z,10.29
2019-04-22T00:24:33.596Z,10.28
2019-04-22T00:25:36.610Z,10.28
2019-04-22T00:26:38.051Z,10.26
2019-04-22T00:28:43.909Z,10.31
2019-04-22T00:30:40.654Z,10.20
2019-04-22T00:31:41.670Z,10.17
2019-04-22T00:32:44.984Z,10.16
2019-04-22T00:33:39.459Z,10.07
2019-04-22T00:34:42.579Z,10.17
2019-04-22T00:35:49.419Z,10.13
2019-04-22T00:36:48.124Z,10.14
2019-04-22T00:37:54.782Z,10.11
2019-04-22T00:38:54.200Z,10.04
2019-04-22T00:39:52.075Z,10.04
2019-04-22T00:40:56.359Z,9.99
2019-04-22T00:41:56.461Z,10.01
2019-04-22T00:43:03.487Z,10.01
2019-04-22T00:44:08.790Z,9.96
2019-04-22T00:45:07.922Z,9.91
2019-04-22T00:45:57.379Z,9.96
2019-04-22T00:47:14.661Z,9.92
2019-04-22T00:48:14.299Z,9.88
2019-04-22T00:49:53.608Z,9.99
2019-04-22T00:52:09.624Z,9.89
2019-04-22T00:53:16.357Z,9.89
2019-04-22T00:54:13.635Z,9.85
2019-04-22T00:56:27.800Z,9.77
2019-04-22T00:57:15.391Z,9.75
2019-04-22T00:58:22.503Z,9.73
2019-04-22T00:59:17.253Z,9.74
2019-04-22T01:00:24.873Z,9.74
2019-04-22T01:02:28.042Z,9.78
2019-04-22T01:03:26.094Z,9.62
2019-04-22T01:04:35.084Z,9.65
2019-04-22T01:05:27.771Z,9.67
2019-04-22T01:06:35.802Z,9.65
2019-04-22T01:07:32.147Z,9.56
2019-04-22T01:08:40.991Z,9.59
2019-04-22T01:09:38.915Z,9.60
2019-04-22T01:10:42.217Z,9.49
2019-04-22T01:11:33.265Z,9.53
2019-04-22T01:12:39.902Z,9.53
2019-04-22T01:13:38.658Z,9.45
2019-04-22T01:14:41.459Z,9.45
2019-04-22T01:15:40.232Z,9.41
2019-04-22T01:16:43.784Z,9.48
2019-04-22T01:17:45.389Z,9.44
2019-04-22T01:18:43.693Z,9.38
2019-04-22T01:19:51.013Z,9.38
2019-04-22T01:21:08.690Z,9.40
2019-04-22T01:21:52.469Z,9.37
2019-04-22T01:22:53.241Z,9.34
2019-04-22T01:23:56.199Z,9.34
2019-04-22T01:24:50.324Z,9.27
2019-04-22T01:25:55.082Z,9.31
2019-04-22T01:26:52.283Z,9.17
2019-04-22T01:27:50.269Z,9.20
2019-04-22T01:28:51.188Z,9.27
2019-04-22T01:29:51.783Z,9.26
2019-04-22T01:30:45.957Z,9.23
2019-04-22T01:31:43.454Z,9.15
2019-04-22T01:32:45.492Z,9.13
2019-04-22T01:33:49.658Z,9.12
2019-04-22T01:34:56.585Z,8.98
2019-04-22T01:36:02.693Z,9.10
2019-04-22T01:37:02.605Z,8.97
2019-04-22T01:38:06.441Z,9.01
2019-04-22T01:39:18.258Z,8.97
2019-04-22T01:40:21.405Z,8.82
2019-04-22T01:41:23.008Z,8.82
2019-04-22T01:42:16.910Z,8.91
2019-04-22T01:43:29.936Z,8.80
2019-04-22T01:44:29.461Z,8.85
2019-04-22T01:45:26.729Z,8.82
2019-04-22T01:46:31.786Z,8.83
2019-04-22T01:47:34.258Z,8.85
2019-04-22T01:50:32.156Z,8.78
2019-04-22T01:51:47.228Z,8.79
2019-04-22T01:52:47.610Z,8.76
2019-04-22T01:53:33.482Z,8.79
2019-04-22T01:54:40.281Z,8.71
2019-04-22T01:55:39.106Z,8.67
2019-04-22T01:56:41.056Z,8.67
2019-04-22T01:57:43.285Z,8.76
2019-04-22T01:58:38.286Z,8.65
2019-04-22T01:59:38.415Z,8.64
2019-04-22T02:00:51.051Z,8.52
2019-04-22T02:01:50.016Z,8.58
2019-04-22T02:02:49.217Z,8.63
2019-04-22T02:03:56.145Z,8.60
2019-04-22T02:04:53.748Z,8.57
2019-04-22T02:05:53.638Z,8.55
2019-04-22T02:07:00.153Z,8.55
2019-04-22T02:08:02.500Z,8.54
2019-04-22T02:09:04.011Z,8.52
2019-04-22T02:09:56.166Z,8.57
2019-04-22T02:11:04.218Z,8.58
2019-04-22T02:13:04.489Z,8.46
2019-04-22T02:14:04.642Z,8.50
2019-04-22T02:15:09.195Z,8.46
2019-04-22T02:16:05.716Z,8.37
2019-04-22T02:17:09.207Z,8.42
2019-04-22T02:18:18.106Z,8.37
2019-04-22T02:19:20.715Z,8.36
2019-04-22T02:20:12.324Z,8.32
2019-04-22T02:21:16.997Z,8.37
2019-04-22T02:22:17.607Z,8.32
2019-04-22T02:23:40.250Z,8.34
2019-04-22T02:24:20.073Z,8.31
2019-04-22T02:25:24.002Z,8.31
2019-04-22T02:26:25.593Z,8.32
2019-04-22T02:27:29.397Z,8.27
2019-04-22T02:28:33.986Z,8.28
2019-04-22T02:29:30.004Z,8.32
2019-04-22T02:30:37.423Z,8.25
2019-04-22T02:31:38.115Z,8.29
2019-04-22T02:32:49.567Z,8.21
2019-04-22T02:34:39.703Z,8.20
2019-04-22T02:36:01.920Z,8.13
2019-04-22T02:36:43.102Z,8.09
2019-04-22T02:37:54.915Z,8.14
2019-04-22T02:39:00.120Z,8.17
2019-04-22T02:39:45.201Z,8.12
2019-04-22T02:41:13.242Z,8.13
2019-04-22T02:42:09.463Z,8.18
2019-04-22T02:42:51.865Z,8.04
2019-04-22T02:44:53.589Z,8.02
2019-04-22T02:46:13.449Z,8.03
2019-04-22T02:48:06.727Z,8.02
2019-04-22T02:49:11.731Z,8.00
2019-04-22T02:50:02.053Z,7.92
2019-04-22T02:51:13.026Z,7.92
2019-04-22T02:51:59.705Z,8.04
2019-04-22T02:53:00.966Z,8.09
2019-04-22T02:55:10.657Z,7.96
2019-04-22T02:56:22.976Z,7.94
2019-04-22T02:58:19.287Z,7.95
2019-04-22T03:00:21.636Z,7.99
2019-04-22T03:01:24.991Z,7.96
2019-04-22T03:02:21.465Z,7.96
2019-04-22T03:03:31.366Z,7.86
2019-04-22T03:04:18.575Z,7.85
2019-04-22T03:05:27.999Z,7.86
2019-04-22T03:06:32.907Z,7.82
2019-04-22T03:07:29.358Z,7.79
2019-04-22T03:08:30.316Z,7.81
2019-04-22T03:09:33.736Z,7.77
2019-04-22T03:10:37.922Z,7.74
2019-04-22T03:11:33.782Z,7.71
2019-04-22T03:12:29.170Z,7.69
2019-04-22T03:14:33.732Z,7.66
2019-04-22T03:15:46.457Z,7.62
2019-04-22T03:16:41.226Z,7.54
2019-04-22T03:17:41.321Z,7.51
2019-04-22T03:20:56.369Z,7.45
2019-04-22T03:21:50.273Z,7.52
2019-04-22T03:22:47.018Z,7.44
2019-04-22T03:24:08.752Z,7.50
2019-04-22T03:25:12.441Z,7.42
2019-04-22T03:27:48.509Z,7.39
2019-04-22T03:30:03.697Z,7.32
2019-04-22T03:33:12.481Z,7.37
2019-04-22T03:34:55.306Z,7.36
2019-04-22T03:35:34.599Z,7.37
2019-04-22T03:36:25.938Z,7.32
2019-04-22T03:39:31.958Z,7.36
2019-04-22T03:40:22.335Z,7.37
2019-04-22T03:41:31.425Z,7.15
2019-04-22T03:42:09.792Z,7.15
2019-04-22T03:43:42.169Z,7.15
2019-04-22T03:44:33.877Z,7.24
2019-04-22T03:45:26.374Z,7.30
2019-04-22T03:46:36.717Z,7.19
2019-04-22T03:48:26.107Z,7.16
2019-04-22T03:49:38.892Z,7.14
2019-04-22T03:50:29.641Z,7.16
2019-04-22T03:53:32.941Z,6.97
2019-04-22T03:54:39.437Z,6.96
2019-04-22T03:55:38.275Z,7.04
2019-04-22T03:57:48.832Z,7.05
2019-04-22T03:58:52.786Z,7.01
2019-04-22T04:02:04.267Z,7.09
2019-04-22T04:03:51.033Z,7.04
2019-04-22T04:04:51.115Z,6.96
2019-04-22T04:05:54.146Z,7.05
2019-04-22T04:09:03.736Z,7.05
2019-04-22T04:10:01.403Z,6.97
2019-04-22T04:10:53.204Z,7.12
2019-04-22T04:13:08.237Z,7.04
2019-04-22T04:14:10.098Z,7.04
2019-04-22T04:15:13.635Z,7.07
2019-04-22T04:16:04.929Z,7.09
2019-04-22T04:17:09.204Z,7.12
2019-04-22T04:18:11.408Z,7.09
2019-04-22T04:19:19.654Z,7.07
2019-04-22T04:20:26.260Z,7.12
2019-04-22T04:21:28.063Z,7.05
2019-04-22T04:22:30.691Z,7.05
2019-04-22T04:23:30.776Z,7.12
2019-04-22T04:24:32.685Z,7.09
2019-04-22T04:26:42.754Z,7.16
2019-04-22T04:28:03.615Z,7.15
2019-04-22T04:28:39.734Z,7.14
2019-04-22T04:31:36.462Z,7.24
2019-04-22T04:32:51.419Z,7.32
2019-04-22T04:33:48.376Z,7.19
2019-04-22T04:34:54.281Z,7.33
2019-04-22T04:35:44.298Z,7.36
2019-04-22T04:36:42.488Z,7.45
2019-04-22T04:37:46.727Z,7.41
2019-04-22T04:38:45.770Z,7.48
2019-04-22T04:39:59.836Z,7.63
2019-04-22T04:40:41.797Z,7.71
2019-04-22T04:43:52.875Z,7.96
2019-04-22T04:47:06.227Z,7.95
2019-04-22T04:50:05.561Z,8.13
2019-04-22T04:51:11.113Z,8.25
2019-04-22T04:54:13.189Z,8.50
2019-04-22T04:55:24.423Z,8.57
2019-04-22T04:56:10.918Z,8.55
2019-04-22T04:57:07.359Z,8.65
2019-04-22T04:58:27.384Z,8.71
2019-04-22T05:01:28.907Z,8.88
2019-04-22T05:02:20.272Z,8.89
2019-04-22T05:03:20.620Z,8.93
2019-04-22T05:04:25.453Z,8.83
2019-04-22T05:05:22.297Z,9.00
2019-04-22T05:06:21.707Z,9.06
2019-04-22T05:07:27.793Z,9.06
2019-04-22T05:08:40.699Z,9.17
2019-04-22T05:10:53.484Z,9.27
2019-04-22T05:11:40.611Z,9.24
2019-04-22T05:13:39.646Z,9.35
2019-04-22T05:18:37.361Z,9.70
2019-04-22T05:19:33.250Z,9.70
2019-04-22T05:20:55.243Z,9.77
2019-04-22T05:21:40.566Z,9.81
2019-04-22T05:22:39.778Z,9.89
2019-04-22T05:23:50.550Z,9.83
2019-04-22T05:24:43.696Z,9.89
2019-04-22T05:25:40.347Z,9.96
2019-04-22T05:26:52.799Z,9.98
2019-04-22T05:27:45.327Z,10.02
2019-04-22T05:28:52.074Z,10.04
2019-04-22T05:30:45.718Z,10.07
2019-04-22T05:31:57.260Z,10.02
2019-04-22T05:32:57.070Z,10.01
2019-04-22T05:33:56.783Z,10.17
2019-04-22T05:34:55.836Z,10.36
2019-04-22T05:36:02.975Z,10.47
2019-04-22T05:37:03.979Z,10.60
2019-04-22T05:38:02.720Z,10.66
2019-04-22T05:40:13.999Z,11.02
2019-04-22T05:41:02.318Z,11.01
2019-04-22T05:42:08.450Z,11.24
2019-04-22T05:43:09.674Z,11.60
2019-04-22T05:44:08.396Z,11.87
2019-04-22T05:46:09.480Z,13.13
2019-04-22T05:47:14.910Z,13.43
2019-04-22T05:48:14.163Z,13.71
2019-04-22T05:49:18.286Z,13.75
2019-04-22T05:50:21.884Z,13.68
2019-04-22T05:51:21.165Z,13.50
2019-04-22T05:52:21.202Z,13.38
2019-04-22T05:53:22.076Z,13.31
2019-04-22T05:55:30.392Z,13.31
2019-04-22T05:56:34.239Z,13.25
2019-04-22T05:57:31.538Z,13.32
2019-04-22T05:58:32.924Z,13.41
2019-04-22T05:59:36.211Z,13.51
2019-04-22T06:00:59.954Z,13.38
2019-04-22T06:02:48.904Z,13.41
2019-04-22T06:03:40.730Z,13.36
2019-04-22T06:04:37.224Z,13.36
2019-04-22T06:05:45.317Z,13.39
2019-04-22T06:06:36.971Z,13.36
2019-04-22T06:07:41.730Z,13.39
2019-04-22T06:08:48.802Z,13.41
2019-04-22T06:09:39.822Z,13.41
2019-04-22T06:11:08.191Z,13.39
2019-04-22T06:11:38.019Z,13.44
2019-04-22T06:12:46.585Z,13.41
2019-04-22T06:13:50.069Z,13.38
2019-04-22T06:14:53.731Z,13.53
2019-04-22T06:15:53.055Z,13.48
2019-04-22T06:16:59.148Z,13.57
2019-04-22T06:18:06.543Z,13.63
2019-04-22T06:19:00.894Z,13.72
2019-04-22T06:19:57.658Z,13.76
2019-04-22T06:21:07.108Z,13.79
2019-04-22T06:22:04.251Z,13.79
2019-04-22T06:23:03.878Z,13.73
2019-04-22T06:24:14.027Z,13.87
2019-04-22T06:25:17.012Z,13.96
2019-04-22T06:26:26.605Z,14.06
2019-04-22T06:27:14.804Z,14.08
2019-04-22T06:28:23.600Z,14.13
2019-04-22T06:29:18.000Z,14.11
2019-04-22T06:30:17.242Z,14.04
2019-04-22T06:31:20.273Z,14.09
2019-04-22T06:33:20.648Z,14.21
2019-04-22T06:34:22.108Z,14.11
2019-04-22T06:35:34.474Z,14.20
2019-04-22T06:36:24.507Z,14.35
2019-04-22T06:37:26.130Z,14.44
2019-04-22T06:38:40.398Z,14.48
2019-04-22T06:40:31.676Z,14.64
2019-04-22T06:41:35.112Z,14.71
2019-04-22T06:42:34.801Z,14.78
2019-04-22T06:43:36.844Z,14.87
2019-04-22T06:44:41.171Z,15.01
2019-04-22T06:45:35.640Z,15.07
2019-04-22T06:46:39.694Z,14.86
2019-04-22T06:47:51.180Z,14.90
2019-04-22T06:48:46.006Z,14.87
2019-04-22T06:49:41.666Z,14.94
2019-04-22T06:51:46.473Z,14.87
2019-04-22T06:52:51.878Z,14.61
2019-04-22T06:53:48.045Z,14.75
2019-04-22T06:54:54.294Z,14.75
2019-04-22T06:55:55.019Z,14.54
2019-04-22T06:56:58.014Z,14.53
2019-04-22T06:58:00.331Z,14.63
2019-04-22T06:58:52.353Z,14.79
2019-04-22T06:59:58.828Z,14.91
2019-04-22T07:01:04.306Z,14.95
2019-04-22T07:02:02.612Z,15.01
2019-04-22T07:04:16.254Z,15.13
2019-04-22T07:05:07.789Z,15.20
2019-04-22T07:06:11.464Z,15.23
2019-04-22T07:07:08.062Z,15.23
2019-04-22T07:08:34.382Z,15.22
2019-04-22T07:10:26.827Z,15.43
2019-04-22T07:11:06.271Z,15.60
2019-04-22T07:12:20.722Z,15.70
2019-04-22T07:13:17.377Z,15.86
2019-04-22T07:14:28.873Z,15.92
2019-04-22T07:15:35.500Z,15.95
2019-04-22T07:16:26.538Z,15.96
2019-04-22T07:17:23.210Z,16.14
2019-04-22T07:19:31.989Z,16.04
2019-04-22T07:20:30.537Z,15.93
2019-04-22T07:21:30.436Z,15.89
2019-04-22T07:22:33.847Z,15.92
2019-04-22T07:23:41.710Z,15.93
2019-04-22T07:24:40.647Z,15.89
2019-04-22T07:25:36.413Z,15.86
2019-04-22T07:26:37.545Z,15.74
2019-04-22T07:27:34.483Z,15.78
2019-04-22T07:28:39.363Z,15.76
2019-04-22T07:29:46.677Z,15.84
2019-04-22T07:30:40.756Z,15.81
2019-04-22T07:31:42.791Z,15.86
2019-04-22T07:33:04.848Z,15.95
2019-04-22T07:33:56.853Z,15.89
2019-04-22T07:37:48.592Z,16.27
2019-04-22T07:38:50.852Z,16.18
2019-04-22T07:39:50.078Z,16.29
2019-04-22T07:40:56.268Z,16.27
2019-04-22T07:41:59.502Z,16.18
2019-04-22T07:43:04.265Z,16.07
2019-04-22T07:44:22.075Z,16.17
2019-04-22T07:45:08.457Z,16.25
2019-04-22T07:46:11.886Z,16.25
2019-04-22T07:47:15.223Z,16.37
2019-04-22T07:48:22.587Z,16.34
2019-04-22T07:49:10.604Z,16.34
2019-04-22T07:50:17.049Z,16.45
2019-04-22T07:51:15.553Z,16.51
2019-04-22T07:52:18.762Z,16.62
2019-04-22T07:53:10.055Z,16.63
2019-04-22T07:54:18.162Z,16.66
2019-04-22T07:55:13.471Z,16.69
2019-04-22T07:56:21.487Z,16.72
2019-04-22T07:57:27.911Z,16.73
2019-04-22T07:58:24.094Z,16.80
2019-04-22T07:59:30.721Z,16.84
2019-04-22T08:00:29.505Z,16.84
2019-04-22T08:01:26.682Z,16.82
2019-04-22T08:02:32.707Z,16.88
2019-04-22T08:03:40.348Z,16.84
2019-04-22T08:04:49.406Z,16.88
2019-04-22T08:06:43.577Z,16.90
2019-04-22T08:07:38.375Z,16.96
2019-04-22T08:08:37.096Z,16.88
2019-04-22T08:09:44.565Z,17.00
2019-04-22T08:10:43.161Z,16.92
2019-04-22T08:12:47.273Z,16.82
2019-04-22T08:14:00.296Z,16.90
2019-04-22T08:14:45.639Z,16.91
2019-04-22T08:15:54.169Z,16.88
2019-04-22T08:16:51.614Z,16.87
2019-04-22T08:19:00.730Z,16.95
2019-04-22T08:19:55.814Z,16.98
2019-04-22T08:20:58.867Z,17.05
2019-04-22T08:21:56.970Z,17.02
2019-04-22T08:23:04.690Z,16.92
2019-04-22T08:24:02.712Z,16.90
2019-04-22T08:25:00.333Z,16.99
2019-04-22T08:26:00.863Z,17.06
2019-04-22T08:27:04.867Z,17.03
2019-04-22T08:28:10.440Z,17.07
2019-04-22T08:29:14.827Z,17.28
2019-04-22T08:30:14.427Z,17.33
2019-04-22T08:31:14.516Z,17.36
2019-04-22T08:32:20.374Z,17.51
2019-04-22T08:33:15.986Z,17.51
2019-04-22T08:35:20.281Z,17.73
2019-04-22T08:36:20.723Z,17.54
2019-04-22T08:37:41.462Z,17.47
2019-04-22T08:38:24.210Z,17.51
2019-04-22T08:39:25.602Z,17.49
2019-04-22T08:40:43.110Z,17.51
2019-04-22T08:42:34.766Z,17.71
2019-04-22T08:43:37.879Z,17.89
2019-04-22T08:45:07.989Z,18.02
2019-04-22T08:45:44.429Z,18.01
2019-04-22T08:46:40.373Z,18.02
2019-04-22T08:47:41.879Z,18.09
2019-04-22T08:48:52.830Z,18.17
2019-04-22T08:49:56.858Z,18.35
2019-04-22T08:50:58.436Z,18.17
2019-04-22T08:51:49.462Z,18.25
2019-04-22T08:52:57.693Z,18.29
2019-04-22T08:54:57.353Z,18.46
2019-04-22T08:56:07.323Z,18.35
2019-04-22T08:56:58.225Z,18.47
2019-04-22T08:58:15.344Z,18.38
2019-04-22T08:59:12.265Z,18.36
2019-04-22T09:00:02.899Z,18.36
2019-04-22T09:01:04.541Z,18.34
2019-04-22T09:02:09.856Z,18.46
2019-04-22T09:03:04.374Z,18.42
2019-04-22T09:04:10.389Z,18.38
2019-04-22T09:05:20.400Z,18.54
2019-04-22T09:06:22.365Z,18.75
2019-04-22T09:07:21.166Z,18.72
2019-04-22T09:09:11.443Z,18.79
2019-04-22T09:10:18.099Z,18.82
2019-04-22T09:11:20.216Z,18.91
2019-04-22T09:12:26.511Z,18.94
2019-04-22T09:13:20.653Z,19.09
2019-04-22T09:14:24.401Z,19.20
2019-04-22T09:15:26.407Z,19.13
2019-04-22T09:16:33.334Z,19.28
2019-04-22T09:17:31.465Z,19.24
2019-04-22T09:18:32.924Z,19.17
2019-04-22T09:19:30.150Z,19.06
2019-04-22T09:20:35.372Z,19.07
2019-04-22T09:21:36.133Z,19.30
2019-04-22T09:22:36.275Z,19.27
2019-04-22T09:23:42.221Z,18.99
2019-04-22T09:24:36.155Z,18.97
2019-04-22T09:25:41.883Z,19.16
2019-04-22T09:26:45.040Z,19.39
2019-04-22T09:27:45.892Z,19.46
2019-04-22T09:28:47.146Z,19.57
2019-04-22T09:29:43.084Z,19.78
2019-04-22T09:30:50.239Z,19.90
2019-04-22T09:31:57.001Z,20.13
2019-04-22T09:32:54.237Z,20.37
2019-04-22T09:33:47.669Z,20.61
2019-04-22T09:34:51.723Z,20.85
2019-04-22T09:36:01.247Z,21.19
2019-04-22T09:37:07.825Z,21.16
2019-04-22T09:38:12.279Z,21.18
2019-04-22T09:39:00.629Z,21.09
2019-04-22T09:40:08.831Z,20.72
2019-04-22T09:42:50.499Z,20.72
2019-04-22T09:43:53.635Z,21.37
2019-04-22T09:44:51.904Z,21.66
2019-04-22T09:45:54.448Z,21.91
2019-04-22T09:46:51.959Z,21.74
2019-04-22T09:48:59.249Z,22.04
2019-04-22T09:51:03.801Z,22.70
2019-04-22T09:52:08.046Z,23.09
2019-04-22T09:53:03.536Z,24.09
2019-04-22T09:54:08.122Z,25.05
2019-04-22T09:55:12.499Z,26.21
2019-04-22T09:56:09.744Z,27.12
2019-04-22T09:57:09.308Z,27.63
2019-04-22T09:58:13.492Z,27.71
2019-04-22T09:59:15.145Z,28.50
2019-04-22T10:00:13.995Z,28.55
2019-04-22T10:01:26.182Z,28.58
2019-04-22T10:02:26.747Z,28.14
2019-04-22T10:03:19.890Z,28.06
2019-04-22T10:04:20.142Z,28.09
2019-04-22T10:05:21.179Z,27.96
2019-04-22T10:06:29.437Z,28.05
2019-04-22T10:07:27.202Z,28.73
2019-04-22T10:08:38.376Z,28.61
2019-04-22T10:09:40.601Z,28.39
2019-04-22T10:10:27.667Z,28.83
2019-04-22T10:11:35.146Z,29.58
2019-04-22T10:13:34.780Z,30.15
2019-04-22T10:17:39.563Z,30.07
2019-04-22T10:18:42.034Z,30.79
2019-04-22T10:19:43.913Z,31.09
2019-04-22T10:20:51.869Z,31.04
2019-04-22T10:22:46.512Z,30.25
2019-04-22T10:23:45.777Z,29.36
2019-04-22T10:24:44.693Z,29.54
2019-04-22T10:25:54.447Z,29.03
2019-04-22T10:26:54.955Z,28.46
2019-04-22T10:27:59.496Z,28.43
2019-04-22T10:29:01.483Z,29.25
2019-04-22T10:30:53.215Z,29.64
2019-04-22T10:32:05.173Z,29.49
2019-04-22T10:32:58.922Z,28.60
2019-04-22T10:33:53.734Z,28.15
2019-04-22T10:34:44.480Z,27.46
2019-04-22T10:35:41.270Z,26.84
2019-04-22T10:36:43.403Z,26.08
2019-04-22T10:37:42.972Z,25.23
2019-04-22T10:38:44.548Z,24.89
2019-04-22T10:39:53.319Z,24.49
2019-04-22T10:40:47.137Z,24.12
2019-04-22T10:41:48.704Z,23.74
2019-04-22T10:42:51.133Z,23.18
2019-04-22T10:43:51.310Z,23.34
2019-04-22T10:44:53.769Z,24.04
2019-04-22T10:45:54.504Z,24.92
2019-04-22T10:46:56.091Z,25.31
2019-04-22T10:47:58.259Z,25.44
2019-04-22T10:48:58.235Z,26.36
2019-04-22T10:50:00.550Z,26.46
2019-04-22T10:51:01.077Z,26.27
2019-04-22T10:52:02.697Z,26.53
2019-04-22T10:53:03.749Z,26.86
2019-04-22T10:54:05.329Z,27.28
2019-04-22T10:55:07.548Z,27.96
2019-04-22T10:56:09.215Z,28.46
2019-04-22T10:57:10.750Z,28.20
2019-04-22T10:58:10.753Z,28.18
2019-04-22T10:59:12.054Z,28.45
2019-04-22T11:00:13.630Z,28.14
2019-04-22T11:01:15.738Z,28.46
2019-04-22T11:02:17.008Z,28.45
2019-04-22T11:03:18.219Z,28.72
2019-04-22T11:04:19.455Z,28.77
2019-04-22T11:05:20.355Z,28.74
2019-04-22T11:06:23.148Z,28.60
2019-04-22T11:07:32.508Z,27.99
2019-04-22T11:08:32.625Z,28.11
2019-04-22T11:09:26.994Z,28.58
2019-04-22T11:10:35.370Z,28.76
2019-04-22T11:11:41.242Z,29.58
2019-04-22T11:12:32.278Z,30.44
2019-04-22T11:13:31.746Z,30.53
2019-04-22T11:14:32.991Z,30.86
2019-04-22T11:15:34.846Z,31.71
2019-04-22T11:16:37.199Z,32.24
2019-04-22T11:17:37.689Z,32.44
2019-04-22T11:18:38.558Z,32.12
2019-04-22T11:19:41.419Z,32.10
2019-04-22T11:20:41.888Z,32.05
2019-04-22T11:21:44.564Z,31.59
2019-04-22T11:22:44.658Z,31.76
2019-04-22T11:23:46.833Z,31.50
2019-04-22T11:24:46.880Z,31.20
2019-04-22T11:25:48.300Z,31.07
2019-04-22T11:26:49.720Z,30.72
2019-04-22T11:27:51.337Z,30.40
2019-04-22T11:28:53.901Z,30.66
2019-04-22T11:29:55.301Z,30.04
2019-04-22T11:30:56.369Z,29.25
2019-04-22T11:31:56.702Z,28.50
2019-04-22T11:32:58.485Z,28.11
2019-04-22T11:34:00.644Z,27.68
2019-04-22T11:35:01.698Z,27.46
2019-04-22T11:36:02.230Z,27.15
2019-04-22T11:37:05.138Z,26.75
2019-04-22T11:38:06.525Z,26.19
2019-04-22T11:39:09.252Z,25.94
2019-04-22T11:40:18.857Z,25.57
2019-04-22T11:41:09.266Z,25.46
2019-04-22T11:42:12.048Z,25.02
2019-04-22T11:43:12.383Z,24.80
2019-04-22T11:44:13.300Z,24.51
2019-04-22T11:45:15.282Z,24.30
2019-04-22T11:46:17.534Z,23.90
2019-04-22T11:47:17.472Z,23.81
2019-04-22T11:48:19.519Z,23.63
2019-04-22T11:49:21.672Z,23.18
2019-04-22T11:50:21.828Z,23.12
2019-04-22T11:51:24.165Z,22.75
2019-04-22T11:52:24.677Z,22.30
2019-04-22T11:53:26.914Z,21.85
2019-04-22T11:54:28.469Z,21.30
2019-04-22T11:55:28.824Z,21.09
2019-04-22T11:56:30.994Z,21.19
2019-04-22T11:57:31.262Z,21.12
2019-04-22T11:58:33.158Z,21.19
2019-04-22T11:59:34.055Z,21.19
2019-04-22T12:00:36.785Z,21.19
2019-04-22T12:01:37.176Z,21.06
2019-04-22T12:02:38.815Z,21.15
2019-04-22T12:03:40.003Z,21.19
2019-04-22T12:04:40.943Z,21.12
2019-04-22T12:05:43.757Z,20.91
2019-04-22T12:06:44.158Z,20.44
2019-04-22T12:07:45.101Z,20.54
2019-04-22T12:08:47.790Z,20.68
2019-04-22T12:09:47.899Z,20.68
2019-04-22T12:10:53.244Z,20.63
2019-04-22T12:11:51.628Z,20.56
2019-04-22T12:12:53.535Z,20.72
2019-04-22T12:13:54.033Z,20.57
2019-04-22T12:14:54.748Z,20.51
2019-04-22T12:15:56.148Z,20.44
2019-04-22T12:16:57.552Z,20.58
2019-04-22T12:17:59.289Z,20.71
2019-04-22T12:19:00.855Z,20.66
2019-04-22T12:20:05.072Z,20.53
2019-04-22T12:21:03.587Z,20.33
2019-04-22T12:22:04.884Z,20.20
2019-04-22T12:23:07.263Z,20.10
2019-04-22T12:24:07.169Z,20.10
2019-04-22T12:25:08.569Z,20.10
2019-04-22T12:26:13.176Z,20.12
2019-04-22T12:27:11.349Z,20.33
2019-04-22T12:28:12.976Z,20.38
2019-04-22T12:29:15.157Z,20.48
2019-04-22T12:30:16.731Z,20.37
2019-04-22T12:31:17.631Z,20.37
2019-04-22T12:32:18.209Z,20.40
2019-04-22T12:33:20.930Z,20.51
2019-04-22T12:34:21.551Z,20.51
2019-04-22T12:35:22.353Z,20.50
2019-04-22T12:36:24.529Z,20.37
2019-04-22T12:37:34.201Z,20.02
2019-04-22T12:38:27.446Z,20.04
2019-04-22T12:39:27.851Z,20.01
2019-04-22T12:40:39.471Z,19.87
2019-04-22T12:41:31.107Z,19.62
2019-04-22T12:42:33.262Z,19.62
2019-04-22T12:43:33.649Z,19.65
2019-04-22T12:44:37.396Z,19.90
2019-04-22T12:45:36.340Z,19.95
2019-04-22T12:46:38.342Z,20.10
2019-04-22T12:47:40.220Z,20.17
2019-04-22T12:48:41.128Z,20.30
2019-04-22T12:49:42.498Z,20.37
2019-04-22T12:50:45.643Z,20.37
2019-04-22T12:51:45.368Z,20.37
2019-04-22T12:52:52.702Z,20.31
2019-04-22T12:53:47.014Z,20.26
2019-04-22T12:54:49.057Z,20.26
2019-04-22T12:55:50.303Z,20.25
2019-04-22T12:56:51.416Z,20.16
2019-04-22T12:57:53.935Z,19.98
2019-04-22T12:58:54.026Z,19.80
2019-04-22T12:59:55.404Z,19.94
2019-04-22T13:00:57.031Z,19.64
2019-04-22T13:01:58.569Z,19.67
2019-04-22T13:02:59.335Z,19.62
2019-04-22T13:04:05.818Z,19.64
2019-04-22T13:05:02.107Z,19.60
2019-04-22T13:06:03.777Z,19.57
2019-04-22T13:07:05.939Z,19.65
2019-04-22T13:08:07.598Z,19.58
2019-04-22T13:09:08.514Z,19.61
2019-04-22T13:10:10.123Z,19.68
2019-04-22T13:11:12.977Z,19.68
2019-04-22T13:12:13.090Z,19.45
2019-04-22T13:13:13.206Z,19.50
2019-04-22T13:14:14.952Z,19.47
2019-04-22T13:15:16.024Z,19.39
2019-04-22T13:16:17.486Z,19.39
2019-04-22T13:17:18.965Z,19.47
2019-04-22T13:18:28.759Z,19.43
2019-04-22T13:19:22.968Z,19.46
2019-04-22T13:20:24.177Z,19.34
2019-04-22T13:21:24.645Z,19.17
2019-04-22T13:22:25.339Z,19.12
2019-04-22T13:23:27.535Z,19.12
2019-04-22T13:24:28.131Z,19.10
2019-04-22T13:25:31.891Z,19.12
2019-04-22T13:26:31.835Z,19.09
2019-04-22T13:27:33.147Z,19.30
2019-04-22T13:28:34.664Z,19.32
2019-04-22T13:29:35.056Z,19.42
2019-04-22T13:30:36.869Z,19.42
2019-04-22T13:31:37.665Z,19.40
2019-04-22T13:32:39.066Z,19.30
2019-04-22T13:33:41.062Z,19.28
2019-04-22T13:34:46.587Z,19.34
2019-04-22T13:35:43.779Z,19.45
2019-04-22T13:36:46.596Z,19.50
2019-04-22T13:37:46.777Z,19.58
2019-04-22T13:38:47.294Z,19.52
2019-04-22T13:39:49.272Z,19.53
2019-04-22T13:41:02.518Z,19.53
2019-04-22T13:41:56.338Z,19.60
2019-04-22T13:42:53.538Z,19.42
2019-04-22T13:43:55.780Z,19.40
2019-04-22T13:44:55.905Z,19.43
2019-04-22T13:45:58.026Z,19.57
2019-04-22T13:47:16.522Z,19.53
2019-04-22T13:48:16.671Z,19.64
2019-04-22T13:49:37.806Z,19.68
2019-04-22T13:50:32.905Z,19.60
2019-04-22T13:51:36.420Z,19.58
2019-04-22T13:52:49.126Z,19.53
2019-04-22T13:55:41.873Z,19.39
2019-04-22T13:56:30.324Z,19.39
2019-04-22T13:57:34.423Z,19.42
2019-04-22T13:58:30.262Z,19.42
2019-04-22T13:59:23.085Z,19.38
2019-04-22T14:00:18.435Z,19.30
2019-04-22T14:01:18.744Z,19.21
2019-04-22T14:02:19.883Z,19.28
2019-04-22T14:03:22.509Z,19.24
2019-04-22T14:04:22.714Z,19.31
2019-04-22T14:05:24.563Z,19.23
2019-04-22T14:06:26.811Z,19.25
2019-04-22T14:07:26.774Z,19.39
2019-04-22T14:08:29.197Z,19.25
2019-04-22T14:09:30.459Z,19.34
2019-04-22T14:10:32.106Z,19.34
2019-04-22T14:11:41.602Z,19.30
2019-04-22T14:12:34.849Z,19.23
2019-04-22T14:13:34.986Z,19.23
2019-04-22T14:14:38.807Z,19.25
2019-04-22T14:15:38.048Z,19.27
2019-04-22T14:16:40.626Z,19.28
2019-04-22T14:17:40.992Z,19.30
2019-04-22T14:18:44.246Z,19.23
2019-04-22T14:19:44.643Z,19.25
2019-04-22T14:20:44.950Z,19.25
2019-04-22T14:21:47.377Z,19.24
2019-04-22T14:22:48.419Z,19.27
2019-04-22T14:23:48.749Z,19.25
2019-04-22T14:24:50.015Z,19.23
2019-04-22T14:25:52.593Z,19.10
2019-04-22T14:27:07.186Z,19.12
2019-04-22T14:28:00.205Z,19.06
2019-04-22T14:28:55.702Z,19.12
2019-04-22T14:29:57.697Z,19.20
2019-04-22T14:30:58.257Z,19.21
2019-04-22T14:32:06.917Z,19.20
2019-04-22T14:33:02.594Z,19.07
2019-04-22T14:34:05.375Z,18.94
2019-04-22T14:35:04.953Z,18.91
2019-04-22T14:36:05.125Z,18.78
2019-04-22T14:37:06.522Z,18.75
2019-04-22T14:38:08.415Z,18.79
2019-04-22T14:39:10.085Z,18.84
2019-04-22T14:40:12.334Z,18.84
2019-04-22T14:41:30.635Z,18.83
2019-04-22T14:42:35.224Z,18.90
2019-04-22T14:43:46.260Z,18.93
2019-04-22T14:45:52.251Z,18.90
2019-04-22T14:46:52.055Z,18.97
2019-04-22T14:47:49.399Z,19.07
2019-04-22T14:48:46.039Z,18.99
2019-04-22T14:49:47.525Z,19.06